Página principal
METAR-TAF:

METAR-TAF

Aeroportos :

Pyongyang, Coreia do Norte

latitude: 39-02N, longitude: 125-47E, altura: 36 m

METAR: em falta

Hora: 15:44 (07:14 UTC)

Previsão

O boletim foi feito há 2 horas e 24 minutos, às 04:50 UTC
Previsão válida de 27 às 06 UTC a 28 às 06 UTC
Vento 12 kt de oes-sudoeste
Visibilidade 10 km ou mais
sem nuvens abaixo de 1500 metros e sem cumulonimbus
Tornando-se
de 27 às 20 UTC a 27 às 22 UTC
Visibilidade: 6000 m
Nuvens fragmentadasa uma altura de 3000 ft
Tornando-se
de 28 às 02 UTC a 28 às 04 UTC
Vento 16 kt de oeste
Visibilidade 10 km ou mais
Encobertoa uma altura de 2000 ft

TAF: ZKPY 270450Z 2706/2806 24006MPS CAVOK BECMG 2720/2722 6000 BKN030 BECMG 2802/2804 27008MPS 9999 OVC020

Observações e previsões do tempo de mais de 4000 aeroportos (mensagens METAR e TAF).

As estações disponíveis são os pontos amarelos e vermelhos sobre o mapa.

Mova o rato sobre o mapa para ver o nome da estação.

Depois clique no ponto para visualizar as observações e previsões meteorológicas.

Para alterar o mapa : clique nos botões verdes com uma cruz preta para aumentar o zoom; no botão verde com uma pitada de zoom; ou nas setas verdes para mapas adjacentes.


METAR-TAF: